createdAt,value
2022-09-03T00:00:52.336Z,13.17
2022-09-03T00:04:03.162Z,12.85
2022-09-03T00:07:11.683Z,12.66
2022-09-03T00:10:41.318Z,12.51
2022-09-03T00:13:54.871Z,12.38
2022-09-03T00:17:02.881Z,12.32
2022-09-03T00:20:33.232Z,12.32
2022-09-03T00:23:40.223Z,12.30
2022-09-03T00:26:51.852Z,12.35
2022-09-03T00:29:57.065Z,12.28
2022-09-03T00:33:06.950Z,12.04
2022-09-03T00:36:21.041Z,12.03
2022-09-03T00:39:26.936Z,12.00
2022-09-03T00:42:46.279Z,12.07
2022-09-03T00:45:54.867Z,12.16
2022-09-03T00:49:08.945Z,12.37
2022-09-03T00:52:43.236Z,12.37
2022-09-03T00:56:11.524Z,12.41
2022-09-03T00:59:41.372Z,12.37
2022-09-03T01:02:59.053Z,12.42
2022-09-03T01:06:22.082Z,12.49
2022-09-03T01:09:33.832Z,12.54
2022-09-03T01:13:04.537Z,12.49
2022-09-03T01:16:22.286Z,12.49
2022-09-03T01:19:31.338Z,12.41
2022-09-03T01:22:57.506Z,12.45
2022-09-03T01:26:00.111Z,12.28
2022-09-03T01:29:45.339Z,12.31
2022-09-03T01:33:08.125Z,12.20
2022-09-03T01:36:19.621Z,11.97
2022-09-03T01:39:38.724Z,11.79
2022-09-03T01:43:01.160Z,11.94
2022-09-03T01:46:13.706Z,11.97
2022-09-03T01:49:48.899Z,12.05
2022-09-03T01:53:10.511Z,11.95
2022-09-03T01:56:47.179Z,12.05
2022-09-03T02:00:14.599Z,12.07
2022-09-03T02:03:17.466Z,12.01
2022-09-03T02:06:20.826Z,12.05
2022-09-03T02:09:23.618Z,11.76
2022-09-03T02:12:33.788Z,11.53
2022-09-03T02:15:39.812Z,11.53
2022-09-03T02:18:48.306Z,11.63
2022-09-03T02:21:53.451Z,11.66
2022-09-03T02:24:55.804Z,11.95
2022-09-03T02:27:58.677Z,12.03
2022-09-03T02:31:01.270Z,12.04
2022-09-03T02:34:03.602Z,12.16
2022-09-03T02:37:14.072Z,12.10
2022-09-03T02:40:17.263Z,12.01
2022-09-03T02:43:27.647Z,11.90
2022-09-03T02:46:37.592Z,11.82
2022-09-03T02:49:39.893Z,11.82
2022-09-03T02:52:42.144Z,12.00
2022-09-03T02:55:44.600Z,12.11
2022-09-03T02:58:48.025Z,11.97
2022-09-03T03:01:50.339Z,11.98
2022-09-03T03:04:55.610Z,12.13
2022-09-03T03:07:58.607Z,12.21
2022-09-03T03:11:02.139Z,12.13
2022-09-03T03:14:04.474Z,12.11
2022-09-03T03:17:06.800Z,12.11
2022-09-03T03:20:10.044Z,11.94
2022-09-03T03:23:12.331Z,11.87
2022-09-03T03:26:20.358Z,11.87
2022-09-03T03:29:22.613Z,11.79
2022-09-03T03:32:25.038Z,11.90
2022-09-03T03:35:27.294Z,11.79
2022-09-03T03:38:29.557Z,11.80
2022-09-03T03:41:34.168Z,11.87
2022-09-03T03:44:36.431Z,11.72
2022-09-03T03:47:38.713Z,11.60
2022-09-03T03:50:41.045Z,11.39
2022-09-03T03:53:44.964Z,11.25
2022-09-03T03:56:50.856Z,11.15
2022-09-03T03:59:58.133Z,11.18
2022-09-03T04:03:00.819Z,11.19
2022-09-03T04:06:04.816Z,11.33
2022-09-03T04:09:07.105Z,11.33
2022-09-03T04:12:10.181Z,11.52
2022-09-03T04:15:12.521Z,11.43
2022-09-03T04:18:14.905Z,11.65
2022-09-03T04:21:19.918Z,11.62
2022-09-03T04:24:22.454Z,11.67
2022-09-03T04:27:24.844Z,11.66
2022-09-03T04:30:27.870Z,11.69
2022-09-03T04:33:31.630Z,11.82
2022-09-03T04:36:35.155Z,11.82
2022-09-03T04:39:37.567Z,11.86
2022-09-03T04:42:39.870Z,11.77
2022-09-03T04:45:42.180Z,11.86
2022-09-03T04:48:47.730Z,11.94
2022-09-03T04:51:50.160Z,11.95
2022-09-03T04:54:54.999Z,12.03
2022-09-03T04:57:57.265Z,12.04
2022-09-03T05:01:08.483Z,12.01
2022-09-03T05:04:10.813Z,12.10
2022-09-03T05:07:15.835Z,11.94
2022-09-03T05:10:24.071Z,12.18
2022-09-03T05:13:26.885Z,12.41
2022-09-03T05:16:30.886Z,12.73
2022-09-03T05:19:34.447Z,12.93
2022-09-03T05:22:36.706Z,13.17
2022-09-03T05:25:39.016Z,13.33
2022-09-03T05:28:42.939Z,13.43
2022-09-03T05:31:45.228Z,13.53
2022-09-03T05:34:47.656Z,13.75
2022-09-03T05:37:49.879Z,13.81
2022-09-03T05:40:52.154Z,14.00
2022-09-03T05:43:56.235Z,14.16
2022-09-03T05:46:58.500Z,14.46
2022-09-03T05:50:00.729Z,14.62
2022-09-03T05:53:03.036Z,14.88
2022-09-03T05:56:10.887Z,15.08
2022-09-03T05:59:13.832Z,15.32
2022-09-03T06:02:16.297Z,15.70
2022-09-03T06:05:22.110Z,15.96
2022-09-03T06:08:24.330Z,16.19
2022-09-03T06:11:29.641Z,16.56
2022-09-03T06:14:31.971Z,16.89
2022-09-03T06:17:34.243Z,17.23
2022-09-03T06:20:37.439Z,17.52
2022-09-03T06:23:40.998Z,17.84
2022-09-03T06:26:49.324Z,18.12
2022-09-03T06:29:51.578Z,18.31
2022-09-03T06:32:54.680Z,18.66
2022-09-03T06:36:03.784Z,18.88
2022-09-03T06:39:07.903Z,19.27
2022-09-03T06:42:10.342Z,19.68
2022-09-03T06:45:12.787Z,20.02
2022-09-03T06:48:15.980Z,20.39
2022-09-03T06:51:20.774Z,20.56
2022-09-03T06:54:25.199Z,20.70
2022-09-03T06:57:27.615Z,21.01
2022-09-03T07:00:31.734Z,20.54
2022-09-03T07:03:35.660Z,20.43
2022-09-03T07:06:40.230Z,20.63
2022-09-03T07:09:47.657Z,20.95
2022-09-03T07:12:50.586Z,20.39
2022-09-03T07:16:08.282Z,20.81
2022-09-03T07:19:10.918Z,21.49
2022-09-03T07:22:13.191Z,22.16
2022-09-03T07:25:15.494Z,22.43
2022-09-03T07:28:17.739Z,21.95
2022-09-03T07:31:26.029Z,21.59
2022-09-03T07:34:28.693Z,21.92
2022-09-03T07:37:30.889Z,22.44
2022-09-03T07:40:33.280Z,22.46
2022-09-03T07:43:43.499Z,22.94
2022-09-03T07:46:47.712Z,23.22
2022-09-03T07:49:50.267Z,23.16
2022-09-03T07:52:59.257Z,23.65
2022-09-03T07:56:11.282Z,24.01
2022-09-03T07:59:13.660Z,24.13
2022-09-03T08:02:15.916Z,23.80
2022-09-03T08:05:21.250Z,24.08
2022-09-03T08:08:23.876Z,23.62
2022-09-03T08:11:27.416Z,24.16
2022-09-03T08:14:31.694Z,23.63
2022-09-03T08:17:34.311Z,23.90
2022-09-03T08:20:37.823Z,23.12
2022-09-03T08:23:41.335Z,23.63
2022-09-03T08:26:47.872Z,22.92
2022-09-03T08:29:54.427Z,22.65
2022-09-03T08:32:56.867Z,22.27
2022-09-03T08:35:59.235Z,22.56
2022-09-03T08:39:04.501Z,21.90
2022-09-03T08:42:40.969Z,22.07
2022-09-03T08:45:43.771Z,22.34
2022-09-03T08:48:47.547Z,23.23
2022-09-03T08:51:53.383Z,23.98
2022-09-03T08:55:18.047Z,24.32
2022-09-03T08:58:23.190Z,25.60
2022-09-03T09:01:55.680Z,25.94
2022-09-03T09:05:12.256Z,26.78
2022-09-03T09:08:56.970Z,26.75
2022-09-03T09:12:31.555Z,27.59
2022-09-03T09:15:47.222Z,26.82
2022-09-03T09:19:14.523Z,26.28
2022-09-03T09:22:37.048Z,27.79
2022-09-03T09:25:48.381Z,27.35
2022-09-03T09:28:58.444Z,26.83
2022-09-03T09:32:00.923Z,26.40
2022-09-03T09:35:03.269Z,26.21
2022-09-03T09:38:05.527Z,25.97
2022-09-03T09:41:27.604Z,25.78
2022-09-03T09:44:32.219Z,25.92
2022-09-03T09:47:39.325Z,25.27
2022-09-03T09:50:41.750Z,24.88
2022-09-03T09:53:45.171Z,25.00
2022-09-03T09:56:59.284Z,25.06
2022-09-03T10:00:11.556Z,25.00
2022-09-03T10:03:14.049Z,25.19
2022-09-03T10:06:35.534Z,25.05
2022-09-03T10:09:37.823Z,26.01
2022-09-03T10:12:44.908Z,26.87
2022-09-03T10:16:01.520Z,28.06
2022-09-03T10:19:17.576Z,28.33
2022-09-03T10:22:21.231Z,28.73
2022-09-03T10:25:26.991Z,28.24
2022-09-03T10:28:30.561Z,28.74
2022-09-03T10:31:36.729Z,27.78
2022-09-03T10:34:46.064Z,29.42
2022-09-03T10:38:11.092Z,30.37
2022-09-03T10:41:33.580Z,30.31
2022-09-03T10:44:42.290Z,30.92
2022-09-03T10:48:04.260Z,32.99
2022-09-03T10:51:16.138Z,33.15
2022-09-03T10:54:59.195Z,32.20
2022-09-03T10:58:45.525Z,31.77
2022-09-03T11:02:15.345Z,31.97
2022-09-03T11:05:22.340Z,31.72
2022-09-03T11:08:48.433Z,31.39
2022-09-03T11:12:23.259Z,32.85
2022-09-03T11:15:34.805Z,32.79
2022-09-03T11:18:44.881Z,32.29
2022-09-03T11:21:48.923Z,33.42
2022-09-03T11:24:59.773Z,33.77
2022-09-03T11:28:21.679Z,33.23
2022-09-03T11:31:50.726Z,33.15
2022-09-03T11:34:55.206Z,33.47
2022-09-03T11:38:03.961Z,30.48
2022-09-03T11:41:17.209Z,31.72
2022-09-03T11:44:20.439Z,31.60
2022-09-03T11:47:37.225Z,28.67
2022-09-03T11:50:56.071Z,28.05
2022-09-03T11:54:25.918Z,27.45
2022-09-03T11:57:30.802Z,30.44
2022-09-03T12:00:33.252Z,32.20
2022-09-03T12:03:54.906Z,32.79
2022-09-03T12:07:24.994Z,31.35
2022-09-03T12:10:38.976Z,29.15
2022-09-03T12:14:10.424Z,26.73
2022-09-03T12:18:12.905Z,26.29
2022-09-03T12:21:17.143Z,26.55
2022-09-03T12:24:20.364Z,27.59
2022-09-03T12:27:25.053Z,29.69
2022-09-03T12:30:30.373Z,30.84
2022-09-03T12:33:33.211Z,30.03
2022-09-03T12:36:47.704Z,30.67
2022-09-03T12:40:11.329Z,29.74
2022-09-03T12:46:38.121Z,30.38
2022-09-03T12:49:42.889Z,30.31
2022-09-03T12:52:59.447Z,30.68
2022-09-03T12:56:03.020Z,31.51
2022-09-03T12:59:14.538Z,32.49
2022-09-03T13:02:27.907Z,32.17
2022-09-03T13:06:01.791Z,32.56
2022-09-03T13:09:08.248Z,33.10
2022-09-03T13:12:33.526Z,32.54
2022-09-03T13:15:36.262Z,34.05
2022-09-03T13:18:38.488Z,34.66
2022-09-03T13:21:46.620Z,34.99
2022-09-03T13:25:14.702Z,33.16
2022-09-03T13:28:16.939Z,34.21
2022-09-03T13:31:32.577Z,35.59
2022-09-03T13:34:50.564Z,34.78
2022-09-03T13:37:59.299Z,33.93
2022-09-03T13:41:07.623Z,33.61
2022-09-03T13:44:16.748Z,34.06
2022-09-03T13:48:04.568Z,34.21
2022-09-03T13:51:16.080Z,34.09
2022-09-03T13:54:47.635Z,34.12
2022-09-03T13:58:01.741Z,31.80
2022-09-03T14:01:16.007Z,31.83
2022-09-03T14:04:28.080Z,32.71
2022-09-03T14:08:09.006Z,32.52
2022-09-03T14:11:26.463Z,31.90
2022-09-03T14:14:40.496Z,32.24
2022-09-03T14:17:51.677Z,32.31
2022-09-03T14:20:59.636Z,31.54
2022-09-03T14:24:12.773Z,30.09
2022-09-03T14:27:25.171Z,30.43
2022-09-03T14:30:46.521Z,30.86
2022-09-03T14:33:58.475Z,30.88
2022-09-03T14:37:18.676Z,30.35
2022-09-03T14:40:40.225Z,29.97
2022-09-03T14:44:09.926Z,30.04
2022-09-03T14:47:35.202Z,29.35
2022-09-03T14:50:55.288Z,29.10
2022-09-03T14:54:40.770Z,29.29
2022-09-03T14:57:58.613Z,28.49
2022-09-03T15:01:16.134Z,28.56
2022-09-03T15:04:37.272Z,27.96
2022-09-03T15:07:42.128Z,28.10
2022-09-03T15:10:56.660Z,28.05
2022-09-03T15:14:19.958Z,27.34
2022-09-03T15:18:03.629Z,27.51
2022-09-03T15:21:24.385Z,27.26
2022-09-03T15:24:42.511Z,27.73
2022-09-03T15:28:07.460Z,27.45
2022-09-03T15:31:09.682Z,27.10
2022-09-03T15:34:33.755Z,27.03
2022-09-03T15:38:36.714Z,27.14
2022-09-03T15:41:46.990Z,26.96
2022-09-03T15:44:54.948Z,26.89
2022-09-03T15:48:09.109Z,26.89
2022-09-03T15:51:35.632Z,26.83
2022-09-03T15:54:48.338Z,26.90
2022-09-03T15:58:09.744Z,25.97
2022-09-03T16:01:32.476Z,25.67
2022-09-03T16:04:50.595Z,25.95
2022-09-03T16:08:31.887Z,25.70
2022-09-03T16:11:38.968Z,25.27
2022-09-03T16:14:49.609Z,25.15
2022-09-03T16:18:30.088Z,25.00
2022-09-03T16:21:59.453Z,24.65
2022-09-03T16:25:13.203Z,24.59
2022-09-03T16:28:29.666Z,24.51
2022-09-03T16:31:34.604Z,24.42
2022-09-03T16:34:57.977Z,24.13
2022-09-03T16:38:29.422Z,23.83
2022-09-03T16:41:44.105Z,23.80
2022-09-03T16:45:14.633Z,23.71
2022-09-03T16:48:46.317Z,23.42
2022-09-03T16:52:15.898Z,23.16
2022-09-03T16:56:00.173Z,23.04
2022-09-03T16:59:59.291Z,22.87
2022-09-03T17:03:26.319Z,22.77
2022-09-03T17:06:31.775Z,22.63
2022-09-03T17:10:17.518Z,22.53
2022-09-03T17:13:50.602Z,22.43
2022-09-03T17:17:17.245Z,22.26
2022-09-03T17:20:37.576Z,22.23
2022-09-03T17:23:48.655Z,22.09
2022-09-03T17:27:07.363Z,22.05
2022-09-03T17:30:26.231Z,21.96
2022-09-03T17:34:05.133Z,21.86
2022-09-03T17:37:16.566Z,21.85
2022-09-03T17:40:19.067Z,21.78
2022-09-03T17:43:39.765Z,21.67
2022-09-03T17:46:54.816Z,21.59
2022-09-03T17:50:01.643Z,21.54
2022-09-03T17:53:17.104Z,21.44
2022-09-03T17:56:23.342Z,21.35
2022-09-03T17:59:47.917Z,21.24
2022-09-03T18:03:11.717Z,21.20
2022-09-03T18:07:08.030Z,21.08
2022-09-03T18:10:22.128Z,20.97
2022-09-03T18:13:58.265Z,20.86
2022-09-03T18:17:13.335Z,20.74
2022-09-03T18:20:34.219Z,20.67
2022-09-03T18:24:29.816Z,20.52
2022-09-03T18:28:12.896Z,20.40
2022-09-03T18:31:34.931Z,20.37
2022-09-03T18:34:56.447Z,20.35
2022-09-03T18:38:17.434Z,20.23
2022-09-03T18:42:03.767Z,20.18
2022-09-03T18:46:28.060Z,20.11
2022-09-03T18:49:50.884Z,20.04
2022-09-03T18:53:18.327Z,19.99
2022-09-03T18:56:42.331Z,19.95
2022-09-03T19:00:28.945Z,19.89
2022-09-03T19:04:16.951Z,19.86
2022-09-03T19:08:00.115Z,19.82
2022-09-03T19:11:29.104Z,19.79
2022-09-03T19:15:08.804Z,19.74
2022-09-03T19:19:14.620Z,19.68
2022-09-03T19:22:45.587Z,19.63
2022-09-03T19:26:06.944Z,19.61
2022-09-03T19:29:45.315Z,19.58
2022-09-03T19:33:21.472Z,19.54
2022-09-03T19:37:06.536Z,19.53
2022-09-03T19:40:27.567Z,19.44
2022-09-03T19:43:57.253Z,19.40
2022-09-03T19:47:20.863Z,19.34
2022-09-03T19:50:45.047Z,19.28
2022-09-03T19:54:08.872Z,19.20
2022-09-03T19:57:33.022Z,19.13
2022-09-03T20:00:54.135Z,19.06
2022-09-03T20:04:18.937Z,19.04
2022-09-03T20:07:40.244Z,18.92
2022-09-03T20:10:44.028Z,18.86
2022-09-03T20:14:05.311Z,18.83
2022-09-03T20:17:22.649Z,18.85
2022-09-03T20:20:44.720Z,18.75
2022-09-03T20:23:53.645Z,18.72
2022-09-03T20:27:07.743Z,18.65
2022-09-03T20:30:19.795Z,18.61
2022-09-03T20:33:34.358Z,18.58
2022-09-03T20:36:58.022Z,18.59
2022-09-03T20:40:18.524Z,18.51
2022-09-03T20:43:39.338Z,18.40
2022-09-03T20:46:45.576Z,18.38
2022-09-03T20:50:19.765Z,18.37
2022-09-03T20:53:24.770Z,18.32
2022-09-03T20:56:35.993Z,18.34
2022-09-03T21:00:10.167Z,18.24
2022-09-03T21:03:21.786Z,18.18
2022-09-03T21:06:29.788Z,18.15
2022-09-03T21:09:49.344Z,18.08
2022-09-03T21:13:17.786Z,18.00
2022-09-03T21:16:36.331Z,18.08
2022-09-03T21:20:20.884Z,18.05
2022-09-03T21:23:25.584Z,17.90
2022-09-03T21:26:31.457Z,17.87
2022-09-03T21:30:06.179Z,17.79
2022-09-03T21:33:17.623Z,17.77
2022-09-03T21:36:32.840Z,17.53
2022-09-03T21:39:40.282Z,17.52
2022-09-03T21:42:53.494Z,17.42
2022-09-03T21:46:04.875Z,17.49
2022-09-03T21:49:11.136Z,17.40
2022-09-03T21:52:25.443Z,17.39
2022-09-03T21:55:33.856Z,17.36
2022-09-03T21:58:54.239Z,17.29
2022-09-03T22:02:23.584Z,17.11
2022-09-03T22:05:37.145Z,17.11
2022-09-03T22:08:47.327Z,17.02
2022-09-03T22:12:04.736Z,17.02
2022-09-03T22:15:13.236Z,17.04
2022-09-03T22:18:28.921Z,16.87
2022-09-03T22:22:00.068Z,16.81
2022-09-03T22:25:11.179Z,16.56
2022-09-03T22:28:42.116Z,16.64
2022-09-03T22:32:21.890Z,16.79
2022-09-03T22:35:48.537Z,16.82
2022-09-03T22:38:59.440Z,16.61
2022-09-03T22:42:04.514Z,16.41
2022-09-03T22:45:51.001Z,16.31
2022-09-03T22:49:24.639Z,16.26
2022-09-03T22:52:45.546Z,16.31
2022-09-03T22:56:11.050Z,16.19
2022-09-03T22:59:13.291Z,16.30
2022-09-03T23:02:20.906Z,16.37
2022-09-03T23:05:41.947Z,16.33
2022-09-03T23:09:00.372Z,16.26
2022-09-03T23:12:11.047Z,16.10
2022-09-03T23:15:22.101Z,15.90
2022-09-03T23:18:27.503Z,15.93
2022-09-03T23:21:39.559Z,15.88
2022-09-03T23:24:45.763Z,15.89
2022-09-03T23:28:11.388Z,15.76
2022-09-03T23:31:22.893Z,15.83
2022-09-03T23:34:26.263Z,16.00
2022-09-03T23:38:02.268Z,16.02
2022-09-03T23:41:12.871Z,16.17
2022-09-03T23:44:52.340Z,16.03
2022-09-03T23:48:04.434Z,16.12
2022-09-03T23:51:25.096Z,16.12
2022-09-03T23:54:37.720Z,15.83
2022-09-03T23:57:42.015Z,15.89
